Copeland, North Carolina
Current Conditions -  °F | °C
As of 3:55 AM on Saturday 22 Nov 2014 (Local Time) from KMWK Reporting Station
Clear Clear  
Wind Chill: 24°   Ceiling: Unl
Heat Index: 24°   Visibility: 10mi
Dew Point: 15°   Wind: 0mph
Humidity: 71%   Direction: NA
Pressure: 30.53"   Gusts: NA
Location:  36.3461°N, 80.7011°W
Report Text: KMWK 220855Z AUTO 00000KT 10SM CLR M05/M09 A3053 RMK AO2 T10461092
Loading
Personal Weather Stations






























Interactive Weather Map New forecast layout! Learn more

10-Day Weather Forecast

Advertisements
Track Severe Weather on mobile